sensor_id;sensor_type;location;lat;lon;timestamp;pressure;altitude;pressure_sealevel;temperature;humidity
43125;BME280;49182;50.788;7.318;2022-12-24T00:01:34;100070.34;;;11.34;72.07
43125;BME280;49182;50.788;7.318;2022-12-24T00:04:01;100070.41;;;11.24;72.06
43125;BME280;49182;50.788;7.318;2022-12-24T00:06:28;100084.38;;;11.34;71.89
43125;BME280;49182;50.788;7.318;2022-12-24T00:08:54;100086.19;;;11.34;71.37
43125;BME280;49182;50.788;7.318;2022-12-24T00:11:21;100080.13;;;11.24;71.36
43125;BME280;49182;50.788;7.318;2022-12-24T00:13:48;100087.16;;;11.33;71.41
43125;BME280;49182;50.788;7.318;2022-12-24T00:16:16;100089.06;;;11.23;70.97
43125;BME280;49182;50.788;7.318;2022-12-24T00:18:43;100061.59;;;10.98;71.57
43125;BME280;49182;50.788;7.318;2022-12-24T00:21:13;100085.50;;;11.14;71.25
43125;BME280;49182;50.788;7.318;2022-12-24T00:23:39;100084.22;;;11.01;70.22
43125;BME280;49182;50.788;7.318;2022-12-24T00:26:07;100106.78;;;11.13;70.69
43125;BME280;49182;50.788;7.318;2022-12-24T00:28:33;100105.53;;;11.17;70.64
43125;BME280;49182;50.788;7.318;2022-12-24T00:31:06;100101.13;;;11.08;70.28
43125;BME280;49182;50.788;7.318;2022-12-24T00:33:34;100112.06;;;11.13;70.93
43125;BME280;49182;50.788;7.318;2022-12-24T00:36:01;100084.31;;;10.91;70.46
43125;BME280;49182;50.788;7.318;2022-12-24T00:38:27;100095.25;;;10.96;71.01
43125;BME280;49182;50.788;7.318;2022-12-24T00:40:57;100114.19;;;11.09;71.15
43125;BME280;49182;50.788;7.318;2022-12-24T00:43:24;100104.44;;;10.92;70.76
43125;BME280;49182;50.788;7.318;2022-12-24T00:45:51;100062.47;;;10.71;71.43
43125;BME280;49182;50.788;7.318;2022-12-24T00:48:17;100052.63;;;10.64;71.01
43125;BME280;49182;50.788;7.318;2022-12-24T00:50:45;100093.19;;;10.90;71.04
43125;BME280;49182;50.788;7.318;2022-12-24T00:53:12;100107.63;;;10.95;71.23
43125;BME280;49182;50.788;7.318;2022-12-24T00:55:38;100117.81;;;10.90;71.24
43125;BME280;49182;50.788;7.318;2022-12-24T00:58:05;100108.72;;;10.93;71.05
43125;BME280;49182;50.788;7.318;2022-12-24T01:00:32;100117.50;;;10.93;70.81
43125;BME280;49182;50.788;7.318;2022-12-24T01:02:58;100115.53;;;10.95;72.01
43125;BME280;49182;50.788;7.318;2022-12-24T01:05:26;100116.38;;;10.96;72.67
43125;BME280;49182;50.788;7.318;2022-12-24T01:07:53;100115.28;;;10.89;73.01
43125;BME280;49182;50.788;7.318;2022-12-24T01:10:20;100123.59;;;10.94;73.26
43125;BME280;49182;50.788;7.318;2022-12-24T01:12:47;100130.16;;;10.90;73.86
43125;BME280;49182;50.788;7.318;2022-12-24T01:15:14;100136.56;;;10.87;73.67
43125;BME280;49182;50.788;7.318;2022-12-24T01:17:41;100132.13;;;10.88;74.13
43125;BME280;49182;50.788;7.318;2022-12-24T01:20:12;100133.25;;;10.85;73.60
43125;BME280;49182;50.788;7.318;2022-12-24T01:22:39;100142.63;;;10.80;73.79
43125;BME280;49182;50.788;7.318;2022-12-24T01:25:08;100152.16;;;10.81;74.05
43125;BME280;49182;50.788;7.318;2022-12-24T01:27:35;100080.56;;;10.39;73.98
43125;BME280;49182;50.788;7.318;2022-12-24T01:30:01;100151.19;;;10.82;73.83
43125;BME280;49182;50.788;7.318;2022-12-24T01:32:28;100146.06;;;10.80;73.90
43125;BME280;49182;50.788;7.318;2022-12-24T01:34:55;100154.38;;;10.85;73.71
43125;BME280;49182;50.788;7.318;2022-12-24T01:37:22;100150.91;;;10.85;74.44
43125;BME280;49182;50.788;7.318;2022-12-24T01:39:48;100027.78;;;10.02;74.37
43125;BME280;49182;50.788;7.318;2022-12-24T01:42:22;100154.38;;;10.85;75.15
43125;BME280;49182;50.788;7.318;2022-12-24T01:44:50;100159.50;;;10.87;74.97
43125;BME280;49182;50.788;7.318;2022-12-24T01:47:19;100123.78;;;10.65;74.26
43125;BME280;49182;50.788;7.318;2022-12-24T01:49:49;100162.97;;;10.87;73.49
43125;BME280;49182;50.788;7.318;2022-12-24T01:52:20;100152.63;;;10.76;73.53
43125;BME280;49182;50.788;7.318;2022-12-24T01:54:49;100174.25;;;10.89;74.03
43125;BME280;49182;50.788;7.318;2022-12-24T01:57:22;100176.03;;;10.89;73.50
43125;BME280;49182;50.788;7.318;2022-12-24T01:59:54;100174.38;;;10.88;74.51
43125;BME280;49182;50.788;7.318;2022-12-24T02:02:24;100172.13;;;10.93;74.06
43125;BME280;49182;50.788;7.318;2022-12-24T02:04:55;100140.31;;;10.67;73.74
43125;BME280;49182;50.788;7.318;2022-12-24T02:07:24;100180.59;;;10.97;73.93
43125;BME280;49182;50.788;7.318;2022-12-24T02:09:52;100182.94;;;11.00;73.89
43125;BME280;49182;50.788;7.318;2022-12-24T02:12:23;100155.56;;;10.73;74.11
43125;BME280;49182;50.788;7.318;2022-12-24T02:14:51;100191.81;;;10.99;74.25
43125;BME280;49182;50.788;7.318;2022-12-24T02:17:25;100195.63;;;10.96;74.52
43125;BME280;49182;50.788;7.318;2022-12-24T02:20:16;100193.75;;;10.79;74.44
43125;BME280;49182;50.788;7.318;2022-12-24T02:23:03;100203.75;;;10.85;74.83
43125;BME280;49182;50.788;7.318;2022-12-24T02:25:43;100195.69;;;10.77;75.21
43125;BME280;49182;50.788;7.318;2022-12-24T02:28:27;100213.06;;;10.79;74.92
43125;BME280;49182;50.788;7.318;2022-12-24T02:31:03;100225.53;;;10.87;75.48
43125;BME280;49182;50.788;7.318;2022-12-24T02:33:34;100232.34;;;10.89;75.03
43125;BME280;49182;50.788;7.318;2022-12-24T02:36:10;100231.22;;;10.92;74.91
43125;BME280;49182;50.788;7.318;2022-12-24T02:38:42;100234.16;;;10.89;75.12
43125;BME280;49182;50.788;7.318;2022-12-24T02:41:14;100232.41;;;10.80;75.43
43125;BME280;49182;50.788;7.318;2022-12-24T02:43:44;100225.84;;;10.74;75.56
43125;BME280;49182;50.788;7.318;2022-12-24T02:46:15;100246.81;;;10.85;75.24
43125;BME280;49182;50.788;7.318;2022-12-24T02:48:43;100240.91;;;10.74;75.39
43125;BME280;49182;50.788;7.318;2022-12-24T02:51:12;100235.50;;;10.66;76.12
43125;BME280;49182;50.788;7.318;2022-12-24T02:53:39;100255.22;;;10.71;75.87
43125;BME280;49182;50.788;7.318;2022-12-24T02:59:16;100215.97;;;10.49;76.22
43125;BME280;49182;50.788;7.318;2022-12-24T03:01:54;100258.13;;;10.68;76.72
43125;BME280;49182;50.788;7.318;2022-12-24T03:04:30;100260.19;;;10.74;76.93
43125;BME280;49182;50.788;7.318;2022-12-24T03:07:01;100263.00;;;10.73;76.49
43125;BME280;49182;50.788;7.318;2022-12-24T03:09:36;100255.22;;;10.71;76.84
43125;BME280;49182;50.788;7.318;2022-12-24T03:12:08;100258.94;;;10.69;77.34
43125;BME280;49182;50.788;7.318;2022-12-24T03:14:39;100207.22;;;10.39;76.97
43125;BME280;49182;50.788;7.318;2022-12-24T03:17:09;100253.94;;;10.75;77.31
43125;BME280;49182;50.788;7.318;2022-12-24T03:19:36;100254.78;;;10.76;77.17
43125;BME280;49182;50.788;7.318;2022-12-24T03:22:06;100258.69;;;10.72;76.96
43125;BME280;49182;50.788;7.318;2022-12-24T03:24:34;100262.28;;;10.71;77.23
43125;BME280;49182;50.788;7.318;2022-12-24T03:27:01;100263.25;;;10.70;77.08
43125;BME280;49182;50.788;7.318;2022-12-24T03:29:29;100266.59;;;10.72;77.20
43125;BME280;49182;50.788;7.318;2022-12-24T03:31:59;100278.97;;;10.71;77.65
43125;BME280;49182;50.788;7.318;2022-12-24T03:34:28;100280.25;;;10.67;78.20
43125;BME280;49182;50.788;7.318;2022-12-24T03:36:55;100272.91;;;10.61;78.42
43125;BME280;49182;50.788;7.318;2022-12-24T03:39:21;100260.41;;;10.44;79.75
43125;BME280;49182;50.788;7.318;2022-12-24T03:41:48;100291.38;;;10.61;80.12
43125;BME280;49182;50.788;7.318;2022-12-24T03:44:15;100295.25;;;10.57;81.51
43125;BME280;49182;50.788;7.318;2022-12-24T03:46:41;100303.56;;;10.62;82.05
43125;BME280;49182;50.788;7.318;2022-12-24T03:49:08;100301.25;;;10.59;82.98
43125;BME280;49182;50.788;7.318;2022-12-24T03:51:36;100290.69;;;10.59;83.87
43125;BME280;49182;50.788;7.318;2022-12-24T03:54:03;100304.16;;;10.56;84.65
43125;BME280;49182;50.788;7.318;2022-12-24T03:56:29;100281.69;;;10.42;85.19
43125;BME280;49182;50.788;7.318;2022-12-24T03:58:56;100306.81;;;10.46;86.07
43125;BME280;49182;50.788;7.318;2022-12-24T04:01:22;100298.34;;;10.43;86.78
43125;BME280;49182;50.788;7.318;2022-12-24T04:03:49;100305.44;;;10.42;86.73
43125;BME280;49182;50.788;7.318;2022-12-24T04:06:16;100287.53;;;10.27;87.17
43125;BME280;49182;50.788;7.318;2022-12-24T04:08:44;100316.84;;;10.43;87.43
43125;BME280;49182;50.788;7.318;2022-12-24T04:11:13;100316.84;;;10.43;87.75
43125;BME280;49182;50.788;7.318;2022-12-24T04:13:40;100313.50;;;10.41;87.93
43125;BME280;49182;50.788;7.318;2022-12-24T04:16:09;100315.28;;;10.40;88.98
43125;BME280;49182;50.788;7.318;2022-12-24T04:18:37;100324.03;;;10.31;89.89
43125;BME280;49182;50.788;7.318;2022-12-24T04:21:04;100316.97;;;10.32;90.06
43125;BME280;49182;50.788;7.318;2022-12-24T04:23:31;100322.94;;;10.34;90.17
43125;BME280;49182;50.788;7.318;2022-12-24T04:26:00;100321.25;;;10.33;90.83
43125;BME280;49182;50.788;7.318;2022-12-24T04:28:27;100331.00;;;10.23;92.15
43125;BME280;49182;50.788;7.318;2022-12-24T04:30:57;100333.63;;;10.23;92.49
43125;BME280;49182;50.788;7.318;2022-12-24T04:33:24;100316.38;;;9.99;93.55
43125;BME280;49182;50.788;7.318;2022-12-24T04:35:51;100338.56;;;10.06;93.12
43125;BME280;49182;50.788;7.318;2022-12-24T04:38:18;100363.22;;;10.17;93.31
43125;BME280;49182;50.788;7.318;2022-12-24T04:40:44;100347.31;;;10.07;94.21
43125;BME280;49182;50.788;7.318;2022-12-24T04:43:13;100347.19;;;10.08;93.98
43125;BME280;49182;50.788;7.318;2022-12-24T04:45:39;100349.84;;;10.08;94.04
43125;BME280;49182;50.788;7.318;2022-12-24T04:48:06;100350.53;;;10.10;93.95
43125;BME280;49182;50.788;7.318;2022-12-24T04:50:32;100346.09;;;10.11;93.85
43125;BME280;49182;50.788;7.318;2022-12-24T04:52:59;100353.59;;;10.06;94.25
43125;BME280;49182;50.788;7.318;2022-12-24T04:55:26;100362.31;;;9.97;95.37
43125;BME280;49182;50.788;7.318;2022-12-24T04:57:52;100345.91;;;9.84;95.51
43125;BME280;49182;50.788;7.318;2022-12-24T05:00:20;100298.72;;;9.61;95.54
43125;BME280;49182;50.788;7.318;2022-12-24T05:02:47;100356.34;;;9.95;95.01
43125;BME280;49182;50.788;7.318;2022-12-24T05:05:14;100348.84;;;9.90;94.96
43125;BME280;49182;50.788;7.318;2022-12-24T05:07:41;100354.81;;;9.92;94.87
43125;BME280;49182;50.788;7.318;2022-12-24T05:10:08;100287.72;;;9.47;94.49
43125;BME280;49182;50.788;7.318;2022-12-24T05:12:35;100354.81;;;9.92;94.24
43125;BME280;49182;50.788;7.318;2022-12-24T05:15:02;100357.59;;;9.91;94.10
43125;BME280;49182;50.788;7.318;2022-12-24T05:17:30;100351.19;;;9.84;94.58
43125;BME280;49182;50.788;7.318;2022-12-24T05:19:56;100346.50;;;9.87;94.51
43125;BME280;49182;50.788;7.318;2022-12-24T05:22:23;100349.50;;;9.83;94.55
43125;BME280;49182;50.788;7.318;2022-12-24T05:24:50;100355.63;;;9.83;94.54
43125;BME280;49182;50.788;7.318;2022-12-24T05:27:16;100355.91;;;9.80;94.81
43125;BME280;49182;50.788;7.318;2022-12-24T05:29:43;100357.59;;;9.81;94.68
43125;BME280;49182;50.788;7.318;2022-12-24T05:32:09;100362.97;;;9.80;94.78
43125;BME280;49182;50.788;7.318;2022-12-24T05:34:37;100350.88;;;9.67;94.73
43125;BME280;49182;50.788;7.318;2022-12-24T05:37:04;100359.09;;;9.74;95.03
43125;BME280;49182;50.788;7.318;2022-12-24T05:39:31;100353.66;;;9.66;94.93
43125;BME280;49182;50.788;7.318;2022-12-24T05:41:57;100359.34;;;9.71;95.35
43125;BME280;49182;50.788;7.318;2022-12-24T05:44:24;100356.69;;;9.61;95.58
43125;BME280;49182;50.788;7.318;2022-12-24T05:46:51;100357.78;;;9.59;96.02
43125;BME280;49182;50.788;7.318;2022-12-24T05:49:17;100373.34;;;9.62;96.21
43125;BME280;49182;50.788;7.318;2022-12-24T05:51:45;100377.91;;;9.60;96.43
43125;BME280;49182;50.788;7.318;2022-12-24T05:54:12;100285.47;;;9.02;96.42
43125;BME280;49182;50.788;7.318;2022-12-24T05:56:38;100384.25;;;9.57;96.80
43125;BME280;49182;50.788;7.318;2022-12-24T05:59:05;100388.84;;;9.55;96.95
43125;BME280;49182;50.788;7.318;2022-12-24T06:01:32;100349.25;;;9.36;96.89
43125;BME280;49182;50.788;7.318;2022-12-24T06:03:58;100386.34;;;9.54;97.24
43125;BME280;49182;50.788;7.318;2022-12-24T06:06:26;100386.34;;;9.54;97.30
43125;BME280;49182;50.788;7.318;2022-12-24T06:08:55;100393.53;;;9.52;97.42
43125;BME280;49182;50.788;7.318;2022-12-24T06:11:24;100388.56;;;9.49;97.42
43125;BME280;49182;50.788;7.318;2022-12-24T06:13:51;100398.13;;;9.50;97.02
43125;BME280;49182;50.788;7.318;2022-12-24T06:16:19;100389.63;;;9.46;97.13
43125;BME280;49182;50.788;7.318;2022-12-24T06:18:46;100396.03;;;9.44;96.83
43125;BME280;49182;50.788;7.318;2022-12-24T06:21:13;100385.72;;;9.31;97.16
43125;BME280;49182;50.788;7.318;2022-12-24T06:23:42;100401.25;;;9.34;97.18
43125;BME280;49182;50.788;7.318;2022-12-24T06:26:12;100408.16;;;9.25;97.11
43125;BME280;49182;50.788;7.318;2022-12-24T06:28:39;100419.88;;;9.21;97.26
43125;BME280;49182;50.788;7.318;2022-12-24T06:31:11;100412.25;;;9.18;97.11
43125;BME280;49182;50.788;7.318;2022-12-24T06:33:38;100406.25;;;9.07;97.36
43125;BME280;49182;50.788;7.318;2022-12-24T06:36:06;100396.88;;;8.93;97.13
43125;BME280;49182;50.788;7.318;2022-12-24T06:38:40;100416.97;;;8.94;97.24
43125;BME280;49182;50.788;7.318;2022-12-24T06:41:07;100415.81;;;8.87;97.34
43125;BME280;49182;50.788;7.318;2022-12-24T06:43:35;100386.06;;;8.55;97.29
43125;BME280;49182;50.788;7.318;2022-12-24T06:46:03;100420.66;;;8.71;97.38
43125;BME280;49182;50.788;7.318;2022-12-24T06:48:30;100421.78;;;8.68;97.56
43125;BME280;49182;50.788;7.318;2022-12-24T06:50:56;100429.78;;;8.67;97.33
43125;BME280;49182;50.788;7.318;2022-12-24T06:53:23;100424.91;;;8.62;97.98
43125;BME280;49182;50.788;7.318;2022-12-24T06:55:50;100418.91;;;8.60;98.40
43125;BME280;49182;50.788;7.318;2022-12-24T06:58:16;100430.28;;;8.61;98.83
43125;BME280;49182;50.788;7.318;2022-12-24T07:00:46;100436.38;;;8.61;99.03
43125;BME280;49182;50.788;7.318;2022-12-24T07:03:12;100417.56;;;8.45;99.50
43125;BME280;49182;50.788;7.318;2022-12-24T07:05:39;100447.63;;;8.63;99.59
43125;BME280;49182;50.788;7.318;2022-12-24T07:08:07;100449.03;;;8.67;99.38
43125;BME280;49182;50.788;7.318;2022-12-24T07:10:34;100446.41;;;8.67;99.33
43125;BME280;49182;50.788;7.318;2022-12-24T07:13:01;100449.50;;;8.72;99.40
43125;BME280;49182;50.788;7.318;2022-12-24T07:15:27;100440.31;;;8.67;99.07
43125;BME280;49182;50.788;7.318;2022-12-24T07:17:55;100445.91;;;8.73;98.88
43125;BME280;49182;50.788;7.318;2022-12-24T07:20:22;100450.22;;;8.74;98.92
43125;BME280;49182;50.788;7.318;2022-12-24T07:22:48;100454.88;;;8.71;99.25
43125;BME280;49182;50.788;7.318;2022-12-24T07:25:15;100470.34;;;8.64;100.00
43125;BME280;49182;50.788;7.318;2022-12-24T07:27:42;100469.13;;;8.68;100.00
43125;BME280;49182;50.788;7.318;2022-12-24T07:30:09;100474.19;;;8.60;100.00
43125;BME280;49182;50.788;7.318;2022-12-24T07:32:36;100479.44;;;8.60;100.00
43125;BME280;49182;50.788;7.318;2022-12-24T07:35:05;100482.34;;;8.57;100.00
43125;BME280;49182;50.788;7.318;2022-12-24T07:37:32;100488.94;;;8.51;100.00
43125;BME280;49182;50.788;7.318;2022-12-24T07:39:58;100459.44;;;8.26;100.00
43125;BME280;49182;50.788;7.318;2022-12-24T07:42:25;100491.94;;;8.47;100.00
43125;BME280;49182;50.788;7.318;2022-12-24T07:44:51;100491.22;;;8.45;100.00
43125;BME280;49182;50.788;7.318;2022-12-24T07:47:18;100380.19;;;7.76;100.00
43125;BME280;49182;50.788;7.318;2022-12-24T07:49:45;100499.97;;;8.45;100.00
43125;BME280;49182;50.788;7.318;2022-12-24T07:52:13;100501.59;;;8.46;100.00
43125;BME280;49182;50.788;7.318;2022-12-24T07:54:39;100509.66;;;8.45;100.00
43125;BME280;49182;50.788;7.318;2022-12-24T07:57:06;100507.25;;;8.42;100.00
43125;BME280;49182;50.788;7.318;2022-12-24T07:59:33;100500.78;;;8.46;100.00
43125;BME280;49182;50.788;7.318;2022-12-24T08:02:00;100498.13;;;8.46;100.00
43125;BME280;49182;50.788;7.318;2022-12-24T08:04:29;100463.84;;;8.25;100.00
43125;BME280;49182;50.788;7.318;2022-12-24T08:06:56;100500.03;;;8.55;100.00
43125;BME280;49182;50.788;7.318;2022-12-24T08:09:24;100493.72;;;8.46;100.00
43125;BME280;49182;50.788;7.318;2022-12-24T08:11:50;100515.00;;;8.55;100.00
43125;BME280;49182;50.788;7.318;2022-12-24T08:14:18;100491.00;;;8.37;100.00
43125;BME280;49182;50.788;7.318;2022-12-24T08:16:45;100508.31;;;8.39;100.00
43125;BME280;49182;50.788;7.318;2022-12-24T08:19:12;100503.41;;;8.46;100.00
43125;BME280;49182;50.788;7.318;2022-12-24T08:21:38;100525.06;;;8.49;100.00
43125;BME280;49182;50.788;7.318;2022-12-24T08:24:05;100541.91;;;8.47;100.00
43125;BME280;49182;50.788;7.318;2022-12-24T08:26:33;100535.81;;;8.46;100.00
43125;BME280;49182;50.788;7.318;2022-12-24T08:29:00;100529.94;;;8.54;100.00
43125;BME280;49182;50.788;7.318;2022-12-24T08:31:27;100534.00;;;8.58;100.00
43125;BME280;49182;50.788;7.318;2022-12-24T08:33:54;100536.16;;;8.53;100.00
43125;BME280;49182;50.788;7.318;2022-12-24T08:36:20;100541.78;;;8.48;100.00
43125;BME280;49182;50.788;7.318;2022-12-24T08:38:47;100534.28;;;8.44;100.00
43125;BME280;49182;50.788;7.318;2022-12-24T08:41:14;100521.25;;;8.42;100.00
43125;BME280;49182;50.788;7.318;2022-12-24T08:43:42;100542.25;;;8.53;100.00
43125;BME280;49182;50.788;7.318;2022-12-24T08:46:09;100549.66;;;8.60;100.00
43125;BME280;49182;50.788;7.318;2022-12-24T08:48:36;100549.06;;;8.67;100.00
43125;BME280;49182;50.788;7.318;2022-12-24T08:51:05;100554.78;;;8.72;100.00
43125;BME280;49182;50.788;7.318;2022-12-24T08:53:32;100559.53;;;8.78;100.00
43125;BME280;49182;50.788;7.318;2022-12-24T08:56:00;100562.78;;;8.82;100.00
43125;BME280;49182;50.788;7.318;2022-12-24T08:58:28;100535.28;;;8.75;100.00
43125;BME280;49182;50.788;7.318;2022-12-24T09:00:56;100564.16;;;8.97;100.00
43125;BME280;49182;50.788;7.318;2022-12-24T09:03:22;100566.88;;;9.07;100.00
43125;BME280;49182;50.788;7.318;2022-12-24T09:05:54;100568.19;;;9.12;100.00
43125;BME280;49182;50.788;7.318;2022-12-24T09:08:20;100539.22;;;9.01;100.00
43125;BME280;49182;50.788;7.318;2022-12-24T09:10:47;100574.34;;;9.22;100.00
43125;BME280;49182;50.788;7.318;2022-12-24T09:13:14;100573.13;;;9.26;100.00
43125;BME280;49182;50.788;7.318;2022-12-24T09:15:40;100545.03;;;9.16;100.00
43125;BME280;49182;50.788;7.318;2022-12-24T09:18:09;100581.97;;;9.37;100.00
43125;BME280;49182;50.788;7.318;2022-12-24T09:20:35;100571.78;;;9.32;100.00
43125;BME280;49182;50.788;7.318;2022-12-24T09:23:04;100584.09;;;9.43;100.00
43125;BME280;49182;50.788;7.318;2022-12-24T09:25:30;100598.53;;;9.48;100.00
43125;BME280;49182;50.788;7.318;2022-12-24T09:27:57;100606.91;;;9.53;100.00
43125;BME280;49182;50.788;7.318;2022-12-24T09:30:23;100601.97;;;9.60;100.00
43125;BME280;49182;50.788;7.318;2022-12-24T09:32:50;100602.06;;;9.58;100.00
43125;BME280;49182;50.788;7.318;2022-12-24T09:35:18;100610.59;;;9.62;100.00
43125;BME280;49182;50.788;7.318;2022-12-24T09:37:45;100610.59;;;9.62;100.00
43125;BME280;49182;50.788;7.318;2022-12-24T09:40:21;100602.78;;;9.60;100.00
43125;BME280;49182;50.788;7.318;2022-12-24T09:42:52;100621.56;;;9.67;100.00
43125;BME280;49182;50.788;7.318;2022-12-24T09:45:21;100622.13;;;9.70;100.00
43125;BME280;49182;50.788;7.318;2022-12-24T09:47:52;100626.72;;;9.68;100.00
43125;BME280;49182;50.788;7.318;2022-12-24T09:50:28;100629.22;;;9.70;100.00
43125;BME280;49182;50.788;7.318;2022-12-24T09:52:57;100638.28;;;9.77;100.00
43125;BME280;49182;50.788;7.318;2022-12-24T09:55:31;100637.75;;;9.83;100.00
43125;BME280;49182;50.788;7.318;2022-12-24T09:58:01;100632.69;;;9.91;100.00
43125;BME280;49182;50.788;7.318;2022-12-24T10:00:32;100597.44;;;9.92;100.00
43125;BME280;49182;50.788;7.318;2022-12-24T10:03:00;100629.34;;;10.10;100.00
43125;BME280;49182;50.788;7.318;2022-12-24T10:05:35;100619.75;;;10.09;100.00
43125;BME280;49182;50.788;7.318;2022-12-24T10:08:11;100640.31;;;10.15;100.00
43125;BME280;49182;50.788;7.318;2022-12-24T10:10:48;100637.59;;;10.17;100.00
43125;BME280;49182;50.788;7.318;2022-12-24T10:13:23;100646.66;;;10.24;100.00
43125;BME280;49182;50.788;7.318;2022-12-24T10:15:55;100654.72;;;10.32;100.00
43125;BME280;49182;50.788;7.318;2022-12-24T10:18:32;100658.50;;;10.29;100.00
43125;BME280;49182;50.788;7.318;2022-12-24T10:21:09;100656.00;;;10.37;100.00
43125;BME280;49182;50.788;7.318;2022-12-24T10:23:44;100653.66;;;10.34;100.00
43125;BME280;49182;50.788;7.318;2022-12-24T10:26:17;100647.97;;;10.39;100.00
43125;BME280;49182;50.788;7.318;2022-12-24T10:28:51;100645.44;;;10.37;100.00
43125;BME280;49182;50.788;7.318;2022-12-24T10:31:21;100643.00;;;10.45;100.00
43125;BME280;49182;50.788;7.318;2022-12-24T10:33:53;100631.34;;;10.48;100.00
43125;BME280;49182;50.788;7.318;2022-12-24T10:36:26;100643.84;;;10.55;100.00
43125;BME280;49182;50.788;7.318;2022-12-24T10:38:53;100651.25;;;10.62;99.86
43125;BME280;49182;50.788;7.318;2022-12-24T10:41:21;100643.91;;;10.65;98.86
43125;BME280;49182;50.788;7.318;2022-12-24T10:43:49;100646.97;;;10.70;98.95
43125;BME280;49182;50.788;7.318;2022-12-24T10:46:20;100651.41;;;10.70;96.85
43125;BME280;49182;50.788;7.318;2022-12-24T10:48:52;100653.66;;;10.74;96.37
43125;BME280;49182;50.788;7.318;2022-12-24T10:51:28;100652.00;;;10.73;92.43
43125;BME280;49182;50.788;7.318;2022-12-24T10:53:59;100651.47;;;10.79;92.94
43125;BME280;49182;50.788;7.318;2022-12-24T10:56:27;100645.91;;;10.82;92.65
43125;BME280;49182;50.788;7.318;2022-12-24T10:58:54;100654.66;;;10.83;91.84
43125;BME280;49182;50.788;7.318;2022-12-24T11:01:41;100643.69;;;10.87;90.10
43125;BME280;49182;50.788;7.318;2022-12-24T11:04:14;100635.91;;;10.86;89.60
43125;BME280;49182;50.788;7.318;2022-12-24T11:06:51;100641.09;;;10.97;88.52
43125;BME280;49182;50.788;7.318;2022-12-24T11:09:20;100643.84;;;10.95;86.96
43125;BME280;49182;50.788;7.318;2022-12-24T11:11:47;100632.75;;;11.02;87.90
43125;BME280;49182;50.788;7.318;2022-12-24T11:14:16;100614.78;;;10.95;87.84
43125;BME280;49182;50.788;7.318;2022-12-24T11:16:48;100641.78;;;11.09;86.02
43125;BME280;49182;50.788;7.318;2022-12-24T11:19:18;100640.25;;;11.06;85.17
43125;BME280;49182;50.788;7.318;2022-12-24T11:21:45;100632.47;;;11.14;83.28
43125;BME280;49182;50.788;7.318;2022-12-24T11:24:22;100646.94;;;11.29;83.80
43125;BME280;49182;50.788;7.318;2022-12-24T11:26:49;100636.38;;;11.29;84.12
43125;BME280;49182;50.788;7.318;2022-12-24T11:29:19;100636.81;;;11.34;83.29
43125;BME280;49182;50.788;7.318;2022-12-24T11:31:46;100641.69;;;11.39;81.41
43125;BME280;49182;50.788;7.318;2022-12-24T11:34:22;100638.75;;;11.52;81.42
43125;BME280;49182;50.788;7.318;2022-12-24T11:36:49;100635.28;;;11.51;82.11
43125;BME280;49182;50.788;7.318;2022-12-24T11:39:20;100640.69;;;11.50;81.97
43125;BME280;49182;50.788;7.318;2022-12-24T11:41:47;100641.53;;;11.50;81.58
43125;BME280;49182;50.788;7.318;2022-12-24T11:44:14;100645.56;;;11.54;80.50
43125;BME280;49182;50.788;7.318;2022-12-24T11:46:42;100615.66;;;11.34;80.23
43125;BME280;49182;50.788;7.318;2022-12-24T11:49:21;100631.94;;;11.49;79.75
43125;BME280;49182;50.788;7.318;2022-12-24T11:52:16;100643.47;;;11.67;80.07
43125;BME280;49182;50.788;7.318;2022-12-24T11:54:53;100642.53;;;11.78;79.80
43125;BME280;49182;50.788;7.318;2022-12-24T11:57:26;100650.31;;;11.89;80.67
43125;BME280;49182;50.788;7.318;2022-12-24T11:59:56;100650.16;;;12.00;79.39
43125;BME280;49182;50.788;7.318;2022-12-24T12:02:26;100651.38;;;12.06;79.99
43125;BME280;49182;50.788;7.318;2022-12-24T12:04:57;100645.41;;;12.04;78.78
43125;BME280;49182;50.788;7.318;2022-12-24T12:07:26;100640.66;;;12.07;78.82
43125;BME280;49182;50.788;7.318;2022-12-24T12:09:59;100634.97;;;12.02;77.85
43125;BME280;49182;50.788;7.318;2022-12-24T12:12:31;100648.19;;;12.02;77.08
43125;BME280;49182;50.788;7.318;2022-12-24T12:15:00;100639.13;;;12.05;77.65
43125;BME280;49182;50.788;7.318;2022-12-24T12:17:31;100646.50;;;12.11;77.97
43125;BME280;49182;50.788;7.318;2022-12-24T12:20:03;100637.63;;;11.93;76.81
43125;BME280;49182;50.788;7.318;2022-12-24T12:22:39;100651.81;;;12.01;76.36
43125;BME280;49182;50.788;7.318;2022-12-24T12:25:17;100659.06;;;12.09;76.88
43125;BME280;49182;50.788;7.318;2022-12-24T12:27:46;100656.81;;;12.14;77.47
43125;BME280;49182;50.788;7.318;2022-12-24T12:30:16;100659.06;;;12.09;76.73
43125;BME280;49182;50.788;7.318;2022-12-24T12:32:49;100624.97;;;11.96;nan
43125;BME280;49182;50.788;7.318;2022-12-24T12:35:22;100662.09;;;12.14;76.92
43125;BME280;49182;50.788;7.318;2022-12-24T12:37:54;100665.53;;;12.24;77.36
43125;BME280;49182;50.788;7.318;2022-12-24T12:43:16;100676.44;;;12.21;75.29
43125;BME280;49182;50.788;7.318;2022-12-24T12:45:52;100675.03;;;12.27;75.63
43125;BME280;49182;50.788;7.318;2022-12-24T12:48:33;100674.59;;;12.31;76.54
43125;BME280;49182;50.788;7.318;2022-12-24T12:51:07;100657.59;;;12.24;77.04
43125;BME280;49182;50.788;7.318;2022-12-24T12:53:45;100669.56;;;12.38;76.12
43125;BME280;49182;50.788;7.318;2022-12-24T12:56:25;100670.78;;;12.43;76.08
43125;BME280;49182;50.788;7.318;2022-12-24T12:58:57;100673.38;;;12.53;76.81
43125;BME280;49182;50.788;7.318;2022-12-24T13:01:41;100671.69;;;12.62;75.71
43125;BME280;49182;50.788;7.318;2022-12-24T13:04:49;100673.50;;;12.61;76.88
43125;BME280;49182;50.788;7.318;2022-12-24T13:07:43;100677.56;;;12.65;75.81
43125;BME280;49182;50.788;7.318;2022-12-24T13:10:34;100673.63;;;12.60;75.06